createdAt,value
2022-11-24T00:01:07.435Z,16.45
2022-11-24T00:03:34.290Z,13.55
2022-11-24T00:06:07.272Z,11.50
2022-11-24T00:08:38.129Z,14.15
2022-11-24T00:11:13.821Z,13.52
2022-11-24T00:13:40.428Z,13.68
2022-11-24T00:16:16.097Z,17.00
2022-11-24T00:18:44.358Z,14.50
2022-11-24T00:21:11.410Z,14.00
2022-11-24T00:23:38.266Z,13.18
2022-11-24T00:26:04.624Z,13.60
2022-11-24T00:28:32.592Z,16.05
2022-11-24T00:30:58.988Z,12.88
2022-11-24T00:33:25.405Z,14.88
2022-11-24T00:35:59.503Z,14.93
2022-11-24T00:38:26.902Z,12.80
2022-11-24T00:40:53.284Z,15.68
2022-11-24T00:43:20.008Z,12.80
2022-11-24T00:45:46.502Z,14.40
2022-11-24T00:48:13.084Z,11.98
2022-11-24T00:50:39.525Z,14.52
2022-11-24T00:53:06.288Z,12.65
2022-11-24T00:55:32.648Z,12.18
2022-11-24T00:57:59.120Z,11.98
2022-11-24T01:00:26.403Z,11.70
2022-11-24T01:02:52.947Z,14.57
2022-11-24T01:05:19.377Z,15.80
2022-11-24T01:07:45.783Z,11.88
2022-11-24T01:10:12.195Z,13.30
2022-11-24T01:12:38.544Z,14.02
2022-11-24T01:15:05.393Z,12.95
2022-11-24T01:17:31.818Z,12.07
2022-11-24T01:19:58.175Z,12.77
2022-11-24T01:22:26.563Z,13.68
2022-11-24T01:24:52.919Z,11.50
2022-11-24T01:27:19.281Z,11.32
2022-11-24T01:29:45.638Z,14.00
2022-11-24T01:32:12.043Z,14.10
2022-11-24T01:34:38.435Z,11.20
2022-11-24T01:37:04.788Z,12.65
2022-11-24T01:39:31.138Z,12.95
2022-11-24T01:42:01.244Z,11.25
2022-11-24T01:44:29.760Z,10.82
2022-11-24T01:47:05.233Z,11.30
2022-11-24T01:49:43.127Z,11.48
2022-11-24T01:52:20.059Z,11.55
2022-11-24T01:54:51.541Z,12.57
2022-11-24T01:57:22.031Z,13.73
2022-11-24T01:59:51.499Z,11.60
2022-11-24T02:02:19.044Z,10.70
2022-11-24T02:04:46.329Z,13.40
2022-11-24T02:07:13.336Z,13.98
2022-11-24T02:09:51.389Z,11.63
2022-11-24T02:12:17.783Z,10.50
2022-11-24T02:14:45.525Z,12.52
2022-11-24T02:17:12.060Z,12.43
2022-11-24T02:19:41.240Z,12.68
2022-11-24T02:22:42.285Z,13.15
2022-11-24T02:25:29.442Z,13.27
2022-11-24T02:27:56.964Z,12.77
2022-11-24T02:30:23.679Z,14.85
2022-11-24T02:32:50.129Z,11.23
2022-11-24T02:35:17.129Z,11.98
2022-11-24T02:37:43.503Z,14.07
2022-11-24T02:40:10.415Z,12.38
2022-11-24T02:42:41.262Z,11.80
2022-11-24T02:45:09.408Z,11.27
2022-11-24T02:47:35.799Z,12.13
2022-11-24T02:50:02.309Z,11.23
2022-11-24T02:52:28.713Z,13.00
2022-11-24T02:54:55.081Z,12.88
2022-11-24T02:57:22.583Z,12.48
2022-11-24T02:59:49.018Z,11.93
2022-11-24T03:02:15.438Z,11.38
2022-11-24T03:04:41.816Z,12.38
2022-11-24T03:07:08.292Z,12.32
2022-11-24T03:09:34.716Z,14.80
2022-11-24T03:12:01.123Z,13.70
2022-11-24T03:14:27.832Z,11.77
2022-11-24T03:16:54.219Z,11.82
2022-11-24T03:19:20.596Z,13.60
2022-11-24T03:21:46.973Z,12.77
2022-11-24T03:24:13.364Z,14.82
2022-11-24T03:26:39.778Z,14.48
2022-11-24T03:29:06.246Z,12.35
2022-11-24T03:31:32.697Z,12.30
2022-11-24T03:33:59.238Z,14.70
2022-11-24T03:36:26.020Z,14.70
2022-11-24T03:38:52.373Z,13.77
2022-11-24T03:41:18.718Z,16.70
2022-11-24T03:43:45.108Z,14.60
2022-11-24T03:46:12.659Z,13.40
2022-11-24T03:48:39.199Z,15.35
2022-11-24T03:51:05.786Z,11.77
2022-11-24T03:53:33.676Z,12.35
2022-11-24T03:56:00.894Z,14.95
2022-11-24T03:58:27.716Z,13.68
2022-11-24T04:00:54.914Z,13.70
2022-11-24T04:03:22.038Z,15.25
2022-11-24T04:05:48.470Z,15.27
2022-11-24T04:08:15.486Z,13.85
2022-11-24T04:10:42.398Z,16.23
2022-11-24T04:13:15.261Z,16.38
2022-11-24T04:15:42.799Z,15.57
2022-11-24T04:18:11.078Z,13.95
2022-11-24T04:20:38.617Z,14.88
2022-11-24T04:23:05.076Z,15.85
2022-11-24T04:25:31.953Z,15.05
2022-11-24T04:27:58.399Z,14.90
2022-11-24T04:30:26.385Z,14.82
2022-11-24T04:32:52.934Z,15.25
2022-11-24T04:35:20.021Z,15.38
2022-11-24T04:37:46.524Z,15.40
2022-11-24T04:40:14.178Z,14.02
2022-11-24T04:42:40.582Z,14.27
2022-11-24T04:45:07.947Z,14.77
2022-11-24T04:47:34.635Z,14.43
2022-11-24T04:50:01.024Z,12.57
2022-11-24T04:52:29.756Z,15.88
2022-11-24T04:54:56.143Z,15.52
2022-11-24T04:57:25.624Z,14.88
2022-11-24T04:59:52.809Z,14.90
2022-11-24T05:02:19.923Z,15.30
2022-11-24T05:04:46.684Z,13.20
2022-11-24T05:07:19.090Z,14.60
2022-11-24T05:10:05.292Z,15.68
2022-11-24T05:12:31.941Z,14.32
2022-11-24T05:14:59.513Z,14.15
2022-11-24T05:17:30.888Z,15.07
2022-11-24T05:19:58.699Z,14.93
2022-11-24T05:22:25.474Z,15.38
2022-11-24T05:24:51.865Z,15.90
2022-11-24T05:27:18.316Z,13.23
2022-11-24T05:29:44.698Z,16.58
2022-11-24T05:32:11.131Z,15.18
2022-11-24T05:34:37.627Z,15.55
2022-11-24T05:37:04.180Z,14.50
2022-11-24T05:39:34.688Z,15.05
2022-11-24T05:44:52.488Z,14.82
2022-11-24T05:47:19.382Z,18.00
2022-11-24T05:49:45.835Z,15.23
2022-11-24T05:52:12.309Z,14.50
2022-11-24T05:54:39.762Z,13.85
2022-11-24T05:57:06.190Z,17.23
2022-11-24T05:59:32.565Z,16.77
2022-11-24T06:01:59.051Z,15.70
2022-11-24T06:04:25.880Z,16.92
2022-11-24T06:06:52.289Z,15.30
2022-11-24T06:09:18.746Z,15.35
2022-11-24T06:11:50.383Z,16.58
2022-11-24T06:14:16.729Z,15.85
2022-11-24T06:16:43.150Z,18.95
2022-11-24T06:19:10.531Z,15.23
2022-11-24T06:21:37.204Z,17.23
2022-11-24T06:24:04.164Z,14.40
2022-11-24T06:26:30.610Z,15.48
2022-11-24T06:28:57.066Z,18.08
2022-11-24T06:31:23.530Z,17.55
2022-11-24T06:33:49.974Z,17.65
2022-11-24T06:36:16.481Z,15.90
2022-11-24T06:38:43.082Z,16.48
2022-11-24T06:41:15.336Z,15.02
2022-11-24T06:43:41.925Z,16.40
2022-11-24T06:46:08.383Z,16.65
2022-11-24T06:48:34.816Z,15.13
2022-11-24T06:51:06.024Z,15.93
2022-11-24T06:53:37.680Z,16.20
2022-11-24T06:56:16.144Z,14.40
2022-11-24T06:58:44.971Z,14.35
2022-11-24T07:01:20.164Z,14.32
2022-11-24T07:03:48.225Z,15.23
2022-11-24T07:06:16.110Z,15.88
2022-11-24T07:08:42.599Z,15.45
2022-11-24T07:11:11.967Z,14.75
2022-11-24T07:13:38.763Z,15.02
2022-11-24T07:16:19.966Z,17.45
2022-11-24T07:18:48.235Z,16.55
2022-11-24T07:21:15.386Z,14.18
2022-11-24T07:23:41.783Z,15.05
2022-11-24T07:26:09.052Z,15.82
2022-11-24T07:28:39.404Z,18.38
2022-11-24T07:31:11.182Z,16.90
2022-11-24T07:33:38.099Z,14.80
2022-11-24T07:36:06.196Z,17.75
2022-11-24T07:38:33.022Z,17.40
2022-11-24T07:41:07.781Z,18.50
2022-11-24T07:43:36.056Z,14.35
2022-11-24T07:46:03.563Z,14.93
2022-11-24T07:48:30.034Z,17.23
2022-11-24T07:51:00.358Z,17.98
2022-11-24T07:53:27.297Z,14.70
2022-11-24T07:55:55.611Z,16.95
2022-11-24T07:58:22.652Z,15.13
2022-11-24T08:00:49.286Z,15.05
2022-11-24T08:03:16.242Z,19.98
2022-11-24T08:06:00.997Z,18.48
2022-11-24T08:08:33.272Z,19.50
2022-11-24T08:11:05.765Z,15.73
2022-11-24T08:13:32.131Z,16.38
2022-11-24T08:15:58.498Z,17.48
2022-11-24T08:18:24.925Z,17.58
2022-11-24T08:20:51.289Z,19.40
2022-11-24T08:23:17.668Z,17.10
2022-11-24T08:25:44.023Z,16.08
2022-11-24T08:28:10.400Z,21.65
2022-11-24T08:30:36.751Z,18.45
2022-11-24T08:33:03.168Z,16.17
2022-11-24T08:35:29.590Z,16.35
2022-11-24T08:37:59.198Z,16.30
2022-11-24T08:40:29.818Z,18.23
2022-11-24T08:43:00.741Z,16.85
2022-11-24T08:45:30.515Z,20.80
2022-11-24T08:47:58.106Z,18.17
2022-11-24T08:50:25.435Z,22.25
2022-11-24T08:52:53.412Z,17.63
2022-11-24T08:55:20.486Z,20.08
2022-11-24T08:57:46.892Z,18.63
2022-11-24T09:00:13.911Z,17.35
2022-11-24T09:02:40.294Z,18.80
2022-11-24T09:05:22.490Z,16.60
2022-11-24T09:07:53.362Z,20.30
2022-11-24T09:10:19.867Z,17.35
2022-11-24T09:12:47.421Z,18.30
2022-11-24T09:15:16.311Z,18.85
2022-11-24T09:17:43.584Z,18.63
2022-11-24T09:20:10.078Z,20.67
2022-11-24T09:22:38.074Z,18.65
2022-11-24T09:25:05.946Z,14.80
2022-11-24T09:27:32.660Z,16.17
2022-11-24T09:29:59.031Z,18.95
2022-11-24T09:32:25.789Z,16.08
2022-11-24T09:34:52.225Z,14.55
2022-11-24T09:37:18.639Z,19.23
2022-11-24T09:39:45.006Z,14.88
2022-11-24T09:42:19.678Z,14.40
2022-11-24T09:45:02.604Z,15.20
2022-11-24T09:47:50.575Z,15.73
2022-11-24T09:50:24.511Z,17.17
2022-11-24T09:53:15.414Z,18.05
2022-11-24T09:55:47.005Z,16.58
2022-11-24T09:58:29.437Z,14.43
2022-11-24T10:00:57.003Z,18.17
2022-11-24T10:03:32.454Z,15.75
2022-11-24T10:06:02.989Z,16.90
2022-11-24T10:08:38.547Z,17.30
2022-11-24T10:11:21.103Z,15.77
2022-11-24T10:14:21.037Z,15.30
2022-11-24T10:16:59.516Z,16.85
2022-11-24T10:19:56.423Z,13.93
2022-11-24T10:22:45.137Z,14.77
2022-11-24T10:25:45.474Z,13.15
2022-11-24T10:28:16.057Z,15.27
2022-11-24T10:30:43.207Z,15.52
2022-11-24T10:33:19.579Z,17.08
2022-11-24T10:35:55.683Z,15.82
2022-11-24T10:38:35.228Z,17.02
2022-11-24T10:41:07.015Z,15.50
2022-11-24T10:43:33.487Z,14.82
2022-11-24T10:46:10.625Z,16.45
2022-11-24T10:48:52.131Z,15.48
2022-11-24T10:51:48.041Z,16.58
2022-11-24T10:54:20.869Z,16.02
2022-11-24T10:56:50.215Z,16.60
2022-11-24T10:59:36.875Z,14.45
2022-11-24T11:02:26.549Z,14.77
2022-11-24T11:04:53.009Z,15.18
2022-11-24T11:07:21.991Z,19.25
2022-11-24T11:09:49.410Z,15.80
2022-11-24T11:12:43.277Z,14.98
2022-11-24T11:15:23.589Z,15.55
2022-11-24T11:17:52.497Z,16.20
2022-11-24T11:20:28.678Z,16.35
2022-11-24T11:22:56.454Z,16.40
2022-11-24T11:25:34.096Z,15.57
2022-11-24T11:28:22.143Z,18.52
2022-11-24T11:31:20.946Z,18.77
2022-11-24T11:34:05.286Z,16.27
2022-11-24T11:36:33.681Z,15.20
2022-11-24T11:39:00.360Z,15.77
2022-11-24T11:41:43.261Z,13.30
2022-11-24T11:44:32.464Z,15.18
2022-11-24T11:47:02.660Z,14.38
2022-11-24T11:49:29.156Z,16.27
2022-11-24T11:52:21.747Z,17.35
2022-11-24T11:55:08.302Z,14.98
2022-11-24T11:57:37.689Z,14.98
2022-11-24T12:00:18.433Z,15.48
2022-11-24T12:03:19.426Z,14.88
2022-11-24T12:06:19.334Z,16.38
2022-11-24T12:09:19.785Z,18.20
2022-11-24T12:12:13.180Z,13.63
2022-11-24T12:15:11.199Z,15.10
2022-11-24T12:17:44.638Z,12.77
2022-11-24T12:20:27.003Z,14.85
2022-11-24T12:23:40.291Z,16.98
2022-11-24T12:26:34.612Z,13.85
2022-11-24T12:29:25.978Z,12.52
2022-11-24T12:32:20.852Z,13.13
2022-11-24T12:35:06.781Z,14.02
2022-11-24T12:37:55.212Z,13.77
2022-11-24T12:40:46.971Z,14.68
2022-11-24T12:43:32.387Z,12.10
2022-11-24T12:46:13.932Z,13.43
2022-11-24T12:49:01.649Z,12.70
2022-11-24T12:51:33.231Z,13.38
2022-11-24T12:54:03.007Z,14.95
2022-11-24T12:56:40.367Z,15.80
2022-11-24T12:59:27.960Z,12.48
2022-11-24T13:02:40.332Z,16.30
2022-11-24T13:05:37.820Z,12.88
2022-11-24T13:08:05.596Z,14.88
2022-11-24T13:10:55.414Z,14.30
2022-11-24T13:13:27.937Z,13.35
2022-11-24T13:16:20.590Z,15.30
2022-11-24T13:18:57.335Z,12.55
2022-11-24T13:21:42.903Z,13.15
2022-11-24T13:24:24.004Z,13.07
2022-11-24T13:27:15.304Z,14.02
2022-11-24T13:29:46.867Z,12.70
2022-11-24T13:32:14.520Z,14.77
2022-11-24T13:34:41.258Z,13.60
2022-11-24T13:37:31.917Z,15.07
2022-11-24T13:40:22.554Z,11.73
2022-11-24T13:42:58.007Z,13.43
2022-11-24T13:45:39.869Z,13.25
2022-11-24T13:48:18.936Z,12.35
2022-11-24T13:50:52.161Z,13.07
2022-11-24T13:53:37.115Z,12.70
2022-11-24T13:56:12.753Z,12.25
2022-11-24T13:58:53.693Z,17.10
2022-11-24T14:01:31.261Z,14.60
2022-11-24T14:04:29.286Z,14.48
2022-11-24T14:06:52.571Z,11.52
2022-11-24T14:09:21.521Z,13.13
2022-11-24T14:12:16.818Z,13.88
2022-11-24T14:14:45.429Z,15.65
2022-11-24T14:17:23.481Z,14.95
2022-11-24T14:19:55.030Z,13.15
2022-11-24T14:22:31.858Z,15.55
2022-11-24T14:25:02.559Z,12.25
2022-11-24T14:27:40.014Z,12.57
2022-11-24T14:30:09.466Z,13.55
2022-11-24T14:32:37.720Z,15.63
2022-11-24T14:35:24.422Z,16.13
2022-11-24T14:37:51.088Z,14.68
2022-11-24T14:40:41.275Z,15.38
2022-11-24T14:43:29.887Z,14.80
2022-11-24T14:46:03.445Z,12.52
2022-11-24T14:48:38.676Z,11.90
2022-11-24T14:51:11.032Z,10.55
2022-11-24T14:53:42.044Z,13.48
2022-11-24T14:56:20.147Z,17.70
2022-11-24T14:58:46.514Z,11.60
2022-11-24T15:01:21.032Z,13.25
2022-11-24T15:04:13.061Z,16.13
2022-11-24T15:06:47.487Z,12.88
2022-11-24T15:09:22.081Z,13.32
2022-11-24T15:11:48.717Z,13.88
2022-11-24T15:14:30.637Z,14.15
2022-11-24T15:16:58.958Z,14.73
2022-11-24T15:19:32.377Z,14.10
2022-11-24T15:21:59.093Z,13.68
2022-11-24T15:24:25.696Z,16.08
2022-11-24T15:27:00.051Z,14.57
2022-11-24T15:29:26.499Z,15.90
2022-11-24T15:31:53.272Z,17.08
2022-11-24T15:34:19.840Z,15.80
2022-11-24T15:36:46.183Z,14.10
2022-11-24T15:39:12.851Z,13.90
2022-11-24T15:41:40.684Z,14.27
2022-11-24T15:44:07.870Z,14.60
2022-11-24T15:46:38.746Z,15.30
2022-11-24T15:49:06.262Z,14.25
2022-11-24T15:51:33.550Z,15.88
2022-11-24T15:54:01.416Z,13.10
2022-11-24T15:56:32.856Z,13.70
2022-11-24T15:59:00.203Z,12.40
2022-11-24T16:01:31.498Z,15.07
2022-11-24T16:03:58.096Z,15.70
2022-11-24T16:06:25.499Z,15.07
2022-11-24T16:08:53.242Z,14.70
2022-11-24T16:11:19.793Z,12.68
2022-11-24T16:13:51.871Z,11.35
2022-11-24T16:16:19.281Z,16.08
2022-11-24T16:18:45.867Z,15.85
2022-11-24T16:21:12.356Z,13.30
2022-11-24T16:23:38.750Z,12.23
2022-11-24T16:26:05.795Z,15.68
2022-11-24T16:28:32.932Z,17.60
2022-11-24T16:30:59.357Z,17.30
2022-11-24T16:33:25.767Z,14.10
2022-11-24T16:35:52.167Z,13.45
2022-11-24T16:38:19.905Z,15.43
2022-11-24T16:40:59.164Z,11.48
2022-11-24T16:43:25.567Z,13.05
2022-11-24T16:46:17.673Z,13.50
2022-11-24T16:48:45.505Z,13.18
2022-11-24T16:51:12.725Z,12.90
2022-11-24T16:53:39.867Z,14.15
2022-11-24T16:56:06.832Z,14.00
2022-11-24T16:58:33.810Z,13.13
2022-11-24T17:01:05.059Z,9.85
2022-11-24T17:03:37.352Z,12.75
2022-11-24T17:06:05.915Z,14.10
2022-11-24T17:08:33.800Z,13.45
2022-11-24T17:11:07.686Z,14.73
2022-11-24T17:13:34.151Z,15.20
2022-11-24T17:16:08.463Z,13.45
2022-11-24T17:18:34.981Z,12.57
2022-11-24T17:21:09.531Z,11.60
2022-11-24T17:23:37.101Z,16.98
2022-11-24T17:26:06.496Z,14.25
2022-11-24T17:28:34.256Z,13.15
2022-11-24T17:31:06.781Z,11.45
2022-11-24T17:33:33.427Z,11.43
2022-11-24T17:36:04.631Z,14.50
2022-11-24T17:38:31.155Z,18.25
2022-11-24T17:40:58.443Z,17.38
2022-11-24T17:43:25.217Z,14.77
2022-11-24T17:45:56.197Z,13.88
2022-11-24T17:48:23.443Z,13.15
2022-11-24T17:50:59.465Z,16.75
2022-11-24T17:53:26.148Z,13.25
2022-11-24T17:55:52.594Z,12.80
2022-11-24T17:58:19.144Z,16.88
2022-11-24T18:00:45.565Z,14.75
2022-11-24T18:03:11.978Z,15.65
2022-11-24T18:05:39.314Z,16.52
2022-11-24T18:08:05.953Z,13.73
2022-11-24T18:10:32.773Z,15.05
2022-11-24T18:12:59.125Z,14.07
2022-11-24T18:15:25.600Z,16.33
2022-11-24T18:17:52.458Z,14.98
2022-11-24T18:20:18.832Z,17.15
2022-11-24T18:25:33.151Z,18.55
2022-11-24T18:27:59.516Z,14.88
2022-11-24T18:30:25.886Z,16.73
2022-11-24T18:32:52.250Z,14.40
2022-11-24T18:35:18.637Z,14.63
2022-11-24T18:37:44.998Z,13.75
2022-11-24T18:40:11.643Z,14.90
2022-11-24T18:42:38.055Z,21.33
2022-11-24T18:45:05.496Z,24.42
2022-11-24T18:47:31.881Z,15.70
2022-11-24T18:50:00.209Z,16.75
2022-11-24T18:52:26.623Z,20.88
2022-11-24T18:54:52.985Z,20.75
2022-11-24T18:57:19.346Z,17.45
2022-11-24T18:59:45.700Z,18.75
2022-11-24T19:02:12.357Z,14.43
2022-11-24T19:04:38.771Z,19.13
2022-11-24T19:07:05.167Z,17.05
2022-11-24T19:09:31.551Z,17.77
2022-11-24T19:11:57.900Z,18.50
2022-11-24T19:14:24.256Z,21.48
2022-11-24T19:16:50.739Z,19.08
2022-11-24T19:19:17.349Z,19.20
2022-11-24T19:21:44.191Z,17.73
2022-11-24T19:24:11.077Z,18.48
2022-11-24T19:26:40.682Z,16.45
2022-11-24T19:29:08.062Z,16.90
2022-11-24T19:31:35.352Z,15.65
2022-11-24T19:34:02.985Z,13.35
2022-11-24T19:36:32.302Z,13.65
2022-11-24T19:38:58.889Z,11.38
2022-11-24T19:41:27.846Z,13.32
2022-11-24T19:43:54.655Z,11.30
2022-11-24T19:46:22.936Z,15.25
2022-11-24T19:48:53.969Z,12.57
2022-11-24T19:51:22.836Z,11.57
2022-11-24T19:53:49.227Z,12.52
2022-11-24T19:56:24.757Z,17.38
2022-11-24T19:58:52.431Z,15.05
2022-11-24T20:01:39.757Z,13.73
2022-11-24T20:04:09.381Z,13.48
2022-11-24T20:06:38.119Z,12.90
2022-11-24T20:09:06.509Z,11.93
2022-11-24T20:11:32.893Z,12.05
2022-11-24T20:13:59.346Z,13.20
2022-11-24T20:16:30.262Z,12.02
2022-11-24T20:18:59.194Z,10.57
2022-11-24T20:21:28.769Z,11.13
2022-11-24T20:23:57.673Z,10.70
2022-11-24T20:26:25.512Z,11.73
2022-11-24T20:28:53.816Z,11.13
2022-11-24T20:31:23.040Z,13.32
2022-11-24T20:33:49.760Z,15.10
2022-11-24T20:36:18.731Z,12.38
2022-11-24T20:38:46.347Z,11.75
2022-11-24T20:41:18.761Z,11.98
2022-11-24T20:43:45.784Z,12.18
2022-11-24T20:46:15.175Z,13.43
2022-11-24T20:48:41.764Z,12.88
2022-11-24T20:51:13.932Z,13.77
2022-11-24T20:53:40.963Z,14.18
2022-11-24T20:56:19.726Z,16.15
2022-11-24T20:58:46.575Z,22.30
2022-11-24T21:01:16.207Z,16.15
2022-11-24T21:03:43.816Z,31.42
2022-11-24T21:06:11.896Z,21.45
2022-11-24T21:08:39.882Z,38.47
2022-11-24T21:11:08.155Z,29.88
2022-11-24T21:13:35.766Z,27.13
2022-11-24T21:16:11.577Z,24.17
2022-11-24T21:18:38.027Z,17.00
2022-11-24T21:21:04.413Z,19.02
2022-11-24T21:23:30.775Z,17.60
2022-11-24T21:26:05.146Z,54.15
2022-11-24T21:28:32.820Z,18.50
2022-11-24T21:31:07.122Z,35.72
2022-11-24T21:33:33.830Z,137.18
2022-11-24T21:36:06.568Z,101.25
2022-11-24T21:38:32.946Z,81.97
2022-11-24T21:41:01.214Z,68.72
2022-11-24T21:43:29.592Z,57.67
2022-11-24T21:46:03.913Z,42.60
2022-11-24T21:48:31.502Z,14.07
2022-11-24T21:50:59.479Z,17.83
2022-11-24T21:53:29.337Z,12.73
2022-11-24T21:55:57.227Z,12.77
2022-11-24T21:58:24.481Z,14.02
2022-11-24T22:00:51.428Z,14.98
2022-11-24T22:03:18.971Z,13.30
2022-11-24T22:05:55.806Z,15.45
2022-11-24T22:08:23.392Z,15.32
2022-11-24T22:10:50.266Z,15.55
2022-11-24T22:13:16.789Z,13.98
2022-11-24T22:15:43.338Z,16.65
2022-11-24T22:18:10.021Z,16.38
2022-11-24T22:20:36.590Z,19.02
2022-11-24T22:23:02.987Z,17.60
2022-11-24T22:25:29.345Z,21.27
2022-11-24T22:27:56.708Z,23.33
2022-11-24T22:30:23.068Z,36.30
2022-11-24T22:32:49.493Z,32.53
2022-11-24T22:35:16.004Z,75.28
2022-11-24T22:37:42.391Z,160.82
2022-11-24T22:40:09.074Z,53.17
2022-11-24T22:42:35.456Z,107.13
2022-11-24T22:45:01.813Z,108.63
2022-11-24T22:47:28.175Z,115.57
2022-11-24T22:49:54.584Z,181.88
2022-11-24T22:52:20.942Z,165.95
2022-11-24T22:54:47.314Z,148.32
2022-11-24T22:57:13.713Z,90.88
2022-11-24T22:59:40.072Z,235.23
2022-11-24T23:02:06.426Z,202.43
2022-11-24T23:04:32.884Z,248.05
2022-11-24T23:06:59.396Z,228.52
2022-11-24T23:09:25.744Z,435.40
2022-11-24T23:11:52.090Z,499.83
2022-11-24T23:14:18.610Z,412.50
2022-11-24T23:16:45.096Z,83.85
2022-11-24T23:19:11.535Z,253.68
2022-11-24T23:21:38.679Z,366.35
2022-11-24T23:24:05.963Z,304.60
2022-11-24T23:26:35.715Z,300.10
2022-11-24T23:29:02.621Z,606.00
2022-11-24T23:31:29.241Z,299.98
2022-11-24T23:34:01.930Z,298.77
2022-11-24T23:36:29.342Z,432.60
2022-11-24T23:38:56.269Z,148.52
2022-11-24T23:41:25.485Z,336.48
2022-11-24T23:43:52.570Z,775.60
2022-11-24T23:46:21.636Z,434.52
2022-11-24T23:48:49.335Z,214.13
2022-11-24T23:51:30.157Z,172.10
2022-11-24T23:53:57.263Z,425.00
2022-11-24T23:56:26.688Z,211.90
2022-11-24T23:58:53.104Z,253.57
